createdAt,value
2018-05-14T00:01:20.631Z,99.80
2018-05-14T00:03:48.135Z,99.90
2018-05-14T00:06:15.648Z,99.90
2018-05-14T00:08:43.224Z,99.90
2018-05-14T00:11:11.499Z,99.60
2018-05-14T00:13:39.760Z,99.60
2018-05-14T00:16:08.069Z,99.60
2018-05-14T00:18:35.672Z,99.60
2018-05-14T00:21:03.276Z,99.60
2018-05-14T00:23:30.804Z,99.80
2018-05-14T00:25:58.329Z,99.80
2018-05-14T00:28:25.941Z,99.60
2018-05-14T00:30:54.321Z,99.60
2018-05-14T00:33:22.583Z,99.70
2018-05-14T00:36:04.444Z,99.60
2018-05-14T00:38:32.093Z,99.70
2018-05-14T00:40:59.722Z,99.60
2018-05-14T00:43:27.981Z,99.30
2018-05-14T00:45:56.257Z,99.60
2018-05-14T00:48:24.577Z,99.60
2018-05-14T00:50:52.089Z,99.60
2018-05-14T00:53:20.366Z,99.90
2018-05-14T00:55:48.654Z,99.60
2018-05-14T00:58:16.932Z,99.60
2018-05-14T01:00:45.216Z,99.70
2018-05-14T01:03:12.720Z,99.70
2018-05-14T01:05:40.335Z,99.70
2018-05-14T01:08:07.862Z,99.80
2018-05-14T01:10:35.440Z,99.80
2018-05-14T01:13:03.712Z,99.90
2018-05-14T01:15:31.997Z,99.90
2018-05-14T01:18:00.373Z,99.90
2018-05-14T01:20:27.943Z,99.90
2018-05-14T01:22:55.485Z,99.90
2018-05-14T01:25:23.759Z,99.90
2018-05-14T01:27:52.170Z,99.90
2018-05-14T01:30:19.707Z,99.90
2018-05-14T01:32:48.081Z,99.90
2018-05-14T01:35:16.348Z,99.90
2018-05-14T01:37:44.633Z,99.90
2018-05-14T01:40:12.948Z,99.90
2018-05-14T01:42:40.565Z,99.90
2018-05-14T01:45:08.946Z,99.90
2018-05-14T01:47:37.247Z,99.90
2018-05-14T01:50:04.794Z,99.90
2018-05-14T01:52:32.300Z,99.90
2018-05-14T01:54:59.893Z,99.90
2018-05-14T01:57:28.240Z,99.90
2018-05-14T01:59:55.743Z,99.90
2018-05-14T02:02:24.023Z,99.90
2018-05-14T02:04:51.517Z,99.90
2018-05-14T02:07:19.045Z,99.90
2018-05-14T02:09:46.540Z,99.90
2018-05-14T02:12:14.062Z,99.90
2018-05-14T02:14:42.142Z,99.90
2018-05-14T02:17:09.659Z,99.90
2018-05-14T02:19:37.175Z,99.90
2018-05-14T02:22:04.671Z,99.90
2018-05-14T02:24:32.183Z,99.90
2018-05-14T02:26:59.785Z,99.90
2018-05-14T02:29:27.427Z,99.90
2018-05-14T02:31:54.913Z,99.90
2018-05-14T02:34:23.309Z,99.90
2018-05-14T02:36:50.873Z,99.90
2018-05-14T02:39:18.394Z,99.90
2018-05-14T02:41:45.988Z,99.90
2018-05-14T02:44:14.256Z,99.90
2018-05-14T02:46:42.525Z,99.90
2018-05-14T02:49:10.813Z,99.90
2018-05-14T02:51:39.089Z,99.90
2018-05-14T02:54:07.469Z,99.90
2018-05-14T02:56:35.733Z,99.90
2018-05-14T02:59:04.024Z,99.90
2018-05-14T03:01:31.526Z,99.90
2018-05-14T03:03:59.027Z,99.90
2018-05-14T03:06:27.414Z,99.90
2018-05-14T03:09:01.756Z,99.90
2018-05-14T03:11:29.314Z,99.90
2018-05-14T03:13:56.808Z,99.90
2018-05-14T03:16:24.413Z,99.90
2018-05-14T03:18:52.701Z,99.90
2018-05-14T03:21:20.274Z,99.90
2018-05-14T03:23:47.782Z,99.90
2018-05-14T03:26:15.357Z,99.90
2018-05-14T03:28:43.624Z,99.90
2018-05-14T03:31:11.128Z,99.90
2018-05-14T03:33:38.621Z,99.90
2018-05-14T03:36:06.222Z,99.90
2018-05-14T03:38:33.724Z,99.90
2018-05-14T03:41:01.245Z,99.90
2018-05-14T03:43:28.749Z,99.90
2018-05-14T03:45:56.280Z,99.90
2018-05-14T03:48:23.777Z,99.90
2018-05-14T03:50:51.301Z,99.90
2018-05-14T03:53:18.848Z,99.90
2018-05-14T03:55:46.409Z,99.90
2018-05-14T03:58:25.972Z,99.90
2018-05-14T04:01:05.095Z,99.90
2018-05-14T04:03:44.708Z,99.90
2018-05-14T04:06:24.139Z,99.90
2018-05-14T04:08:51.677Z,99.90
2018-05-14T04:11:19.998Z,99.90
2018-05-14T04:13:47.520Z,99.90
2018-05-14T04:16:15.904Z,99.90
2018-05-14T04:18:44.167Z,99.90
2018-05-14T04:21:12.499Z,99.90
2018-05-14T04:23:40.025Z,99.90
2018-05-14T04:26:07.520Z,99.90
2018-05-14T04:28:35.125Z,99.90
2018-05-14T04:31:03.505Z,99.90
2018-05-14T04:33:31.765Z,99.90
2018-05-14T04:35:59.349Z,99.90
2018-05-14T04:38:27.708Z,99.90
2018-05-14T04:40:58.929Z,99.90
2018-05-14T04:43:26.423Z,99.90
2018-05-14T04:45:55.123Z,99.90
2018-05-14T04:48:22.652Z,99.90
2018-05-14T04:50:50.941Z,99.90
2018-05-14T04:53:19.217Z,99.90
2018-05-14T04:55:47.485Z,99.90
2018-05-14T04:58:15.749Z,99.90
2018-05-14T05:00:43.304Z,99.90
2018-05-14T05:03:10.832Z,99.90
2018-05-14T05:05:38.367Z,99.90
2018-05-14T05:08:07.132Z,99.90
2018-05-14T05:10:35.476Z,99.90
2018-05-14T05:13:03.056Z,99.90
2018-05-14T05:15:31.344Z,99.90
2018-05-14T05:17:59.604Z,99.90
2018-05-14T05:20:27.107Z,99.90
2018-05-14T05:22:54.769Z,99.90
2018-05-14T05:25:22.313Z,99.90
2018-05-14T05:27:49.882Z,99.90
2018-05-14T05:30:17.532Z,99.90
2018-05-14T05:32:45.048Z,99.90
2018-05-14T05:35:12.534Z,99.90
2018-05-14T05:37:41.094Z,99.90
2018-05-14T05:40:08.618Z,99.90
2018-05-14T05:42:36.212Z,99.90
2018-05-14T05:45:03.831Z,99.90
2018-05-14T05:47:31.310Z,99.90
2018-05-14T05:49:58.920Z,99.90
2018-05-14T05:52:27.322Z,99.90
2018-05-14T05:54:55.681Z,99.90
2018-05-14T05:57:23.345Z,99.90
2018-05-14T05:59:51.312Z,99.90
2018-05-14T06:02:18.830Z,99.90
2018-05-14T06:04:56.320Z,99.90
2018-05-14T06:07:23.860Z,99.90
2018-05-14T06:09:51.369Z,99.90
2018-05-14T06:12:20.375Z,99.60
2018-05-14T06:14:47.935Z,99.60
2018-05-14T06:17:15.428Z,99.20
2018-05-14T06:19:42.951Z,98.70
2018-05-14T06:22:10.488Z,99.30
2018-05-14T06:24:38.759Z,98.80
2018-05-14T06:27:07.040Z,98.80
2018-05-14T06:29:35.310Z,98.90
2018-05-14T06:32:03.588Z,99.00
2018-05-14T06:34:31.974Z,98.80
2018-05-14T06:37:00.239Z,98.90
2018-05-14T06:39:27.745Z,98.90
2018-05-14T06:41:55.289Z,99.00
2018-05-14T06:44:22.837Z,99.20
2018-05-14T06:46:50.292Z,99.40
2018-05-14T06:49:17.915Z,99.20
2018-05-14T06:51:45.378Z,99.10
2018-05-14T06:54:12.875Z,98.40
2018-05-14T06:56:40.394Z,98.00
2018-05-14T06:59:07.956Z,97.50
2018-05-14T07:01:36.265Z,97.00
2018-05-14T07:04:03.815Z,97.00
2018-05-14T07:06:32.372Z,97.00
2018-05-14T07:08:59.904Z,96.90
2018-05-14T07:11:28.260Z,97.20
2018-05-14T07:13:59.565Z,97.00
2018-05-14T07:16:27.831Z,96.70
2018-05-14T07:18:55.323Z,96.70
2018-05-14T07:21:22.832Z,96.70
2018-05-14T07:23:50.333Z,96.50
2018-05-14T07:26:17.848Z,96.20
2018-05-14T07:28:45.331Z,96.00
2018-05-14T07:31:13.616Z,94.80
2018-05-14T07:33:41.985Z,93.70
2018-05-14T07:36:10.332Z,92.20
2018-05-14T07:38:37.952Z,92.20
2018-05-14T07:41:05.473Z,90.40
2018-05-14T07:43:33.824Z,87.60
2018-05-14T07:46:01.275Z,87.60
2018-05-14T07:48:28.756Z,85.30
2018-05-14T07:50:56.429Z,85.20
2018-05-14T07:53:24.921Z,81.10
2018-05-14T07:55:53.177Z,79.80
2018-05-14T07:58:20.851Z,79.70
2018-05-14T08:00:49.125Z,79.40
2018-05-14T08:03:17.707Z,80.40
2018-05-14T08:05:45.988Z,81.10
2018-05-14T08:08:14.263Z,80.30
2018-05-14T08:10:42.551Z,80.60
2018-05-14T08:13:10.829Z,81.30
2018-05-14T08:15:38.355Z,81.10
2018-05-14T08:18:05.869Z,80.90
2018-05-14T08:20:33.369Z,79.80
2018-05-14T08:23:00.941Z,79.00
2018-05-14T08:25:29.250Z,78.70
2018-05-14T08:27:57.097Z,78.50
2018-05-14T08:30:24.609Z,79.50
2018-05-14T08:32:52.105Z,78.60
2018-05-14T08:35:20.390Z,77.60
2018-05-14T08:37:47.977Z,77.50
2018-05-14T08:40:15.803Z,74.90
2018-05-14T08:42:44.111Z,72.00
2018-05-14T08:45:11.604Z,72.00
2018-05-14T08:47:39.122Z,71.80
2018-05-14T08:50:06.644Z,70.40
2018-05-14T08:52:35.034Z,70.80
2018-05-14T08:55:03.912Z,71.20
2018-05-14T08:57:32.178Z,71.60
2018-05-14T09:00:01.320Z,70.70
2018-05-14T09:02:29.602Z,70.50
2018-05-14T09:04:57.109Z,70.50
2018-05-14T09:07:24.605Z,70.20
2018-05-14T09:09:52.129Z,70.80
2018-05-14T09:12:19.641Z,70.90
2018-05-14T09:14:47.157Z,71.90
2018-05-14T09:17:15.439Z,71.80
2018-05-14T09:19:43.824Z,72.00
2018-05-14T09:22:11.361Z,72.00
2018-05-14T09:24:39.648Z,71.90
2018-05-14T09:27:07.921Z,72.50
2018-05-14T09:29:36.325Z,73.90
2018-05-14T09:32:03.809Z,73.90
2018-05-14T09:34:31.312Z,74.50
2018-05-14T09:36:59.607Z,73.20
2018-05-14T09:39:27.869Z,73.20
2018-05-14T09:41:55.512Z,70.80
2018-05-14T09:44:23.781Z,67.80
2018-05-14T09:46:58.415Z,67.60
2018-05-14T09:49:26.665Z,65.20
2018-05-14T09:51:54.157Z,65.10
2018-05-14T09:54:22.537Z,64.90
2018-05-14T09:56:50.107Z,64.90
2018-05-14T09:59:17.643Z,64.10
2018-05-14T10:01:46.005Z,63.10
2018-05-14T10:04:13.459Z,63.10
2018-05-14T10:06:41.004Z,64.30
2018-05-14T10:09:08.496Z,64.10
2018-05-14T10:11:36.842Z,63.60
2018-05-14T10:14:04.346Z,63.50
2018-05-14T10:16:31.856Z,64.00
2018-05-14T10:18:59.359Z,63.00
2018-05-14T10:21:27.619Z,62.90
2018-05-14T10:23:55.904Z,62.60
2018-05-14T10:26:24.169Z,62.70
2018-05-14T10:28:51.679Z,62.70
2018-05-14T10:31:19.170Z,62.90
2018-05-14T10:33:46.656Z,63.10
2018-05-14T10:36:14.916Z,65.80
2018-05-14T10:38:43.285Z,65.20
2018-05-14T10:41:11.640Z,65.90
2018-05-14T10:43:39.183Z,65.90
2018-05-14T10:46:06.656Z,66.90
2018-05-14T10:48:34.172Z,67.60
2018-05-14T10:51:01.699Z,67.60
2018-05-14T10:53:30.045Z,68.00
2018-05-14T10:55:57.581Z,68.00
2018-05-14T10:58:25.115Z,68.50
2018-05-14T11:00:53.375Z,68.20
2018-05-14T11:03:21.636Z,68.30
2018-05-14T11:05:49.201Z,68.30
2018-05-14T11:08:16.776Z,68.50
2018-05-14T11:10:44.316Z,69.50
2018-05-14T11:13:12.588Z,69.40
2018-05-14T11:15:41.004Z,69.80
2018-05-14T11:18:08.542Z,69.80
2018-05-14T11:20:36.799Z,69.80
2018-05-14T11:23:04.371Z,69.80
2018-05-14T11:25:32.673Z,69.20
2018-05-14T11:28:00.326Z,69.10
2018-05-14T11:30:27.816Z,69.10
2018-05-14T11:32:55.321Z,69.60
2018-05-14T11:35:23.646Z,70.50
2018-05-14T11:37:51.883Z,70.50
2018-05-14T11:40:19.439Z,70.50
2018-05-14T11:42:47.707Z,70.10
2018-05-14T11:45:16.077Z,71.10
2018-05-14T11:47:44.387Z,71.20
2018-05-14T11:50:11.881Z,71.20
2018-05-14T11:52:39.411Z,70.90
2018-05-14T11:55:06.928Z,70.50
2018-05-14T11:57:35.241Z,69.50
2018-05-14T12:00:02.844Z,69.50
2018-05-14T12:02:30.386Z,69.50
2018-05-14T12:04:58.136Z,68.50
2018-05-14T12:07:26.966Z,69.10
2018-05-14T12:09:55.309Z,69.30
2018-05-14T12:12:23.501Z,69.20
2018-05-14T12:14:51.340Z,69.70
2018-05-14T12:17:18.967Z,70.70
2018-05-14T12:19:48.789Z,71.70
2018-05-14T12:22:16.321Z,71.70
2018-05-14T12:24:44.585Z,74.10
2018-05-14T12:27:12.125Z,74.10
2018-05-14T12:29:41.079Z,74.70
2018-05-14T12:32:08.640Z,74.80
2018-05-14T12:34:36.085Z,74.60
2018-05-14T12:37:03.657Z,75.40
2018-05-14T12:39:32.021Z,75.00
2018-05-14T12:41:59.852Z,73.40
2018-05-14T12:44:27.436Z,71.10
2018-05-14T12:46:56.741Z,70.60
2018-05-14T12:49:25.960Z,70.50
2018-05-14T12:51:53.507Z,70.50
2018-05-14T12:54:21.048Z,70.60
2018-05-14T12:56:49.481Z,72.40
2018-05-14T12:59:17.014Z,72.40
2018-05-14T13:01:45.540Z,74.10
2018-05-14T13:04:13.123Z,73.90
2018-05-14T13:06:41.418Z,75.00
2018-05-14T13:09:09.008Z,75.00
2018-05-14T13:11:46.450Z,75.80
2018-05-14T13:14:15.840Z,76.40
2018-05-14T13:16:54.926Z,77.10
2018-05-14T13:19:22.475Z,77.10
2018-05-14T13:21:50.469Z,77.20
2018-05-14T13:24:17.975Z,77.50
2018-05-14T13:26:47.642Z,73.80
2018-05-14T13:29:15.259Z,73.80
2018-05-14T13:31:42.952Z,72.80
2018-05-14T13:34:10.443Z,71.70
2018-05-14T13:36:38.720Z,72.50
2018-05-14T13:39:07.397Z,70.70
2018-05-14T13:41:35.070Z,70.70
2018-05-14T13:44:03.379Z,71.10
2018-05-14T13:49:04.870Z,71.10
2018-05-14T13:51:39.762Z,70.90
2018-05-14T13:54:08.024Z,71.00
2018-05-14T13:56:35.573Z,70.90
2018-05-14T13:59:03.844Z,70.70
2018-05-14T14:01:32.140Z,70.70
2018-05-14T14:04:00.429Z,67.90
2018-05-14T14:06:27.979Z,67.90
2018-05-14T14:08:55.525Z,67.90
2018-05-14T14:11:23.828Z,68.20
2018-05-14T14:13:52.076Z,67.70
2018-05-14T14:16:20.339Z,67.40
2018-05-14T14:18:48.611Z,65.60
2018-05-14T14:21:16.885Z,65.60
2018-05-14T14:23:44.607Z,65.60
2018-05-14T14:26:13.280Z,66.20
2018-05-14T14:28:40.813Z,66.30
2018-05-14T14:31:08.346Z,64.80
2018-05-14T14:33:35.966Z,64.50
2018-05-14T14:36:03.469Z,65.20
2018-05-14T14:38:30.946Z,64.80
2018-05-14T14:40:59.207Z,62.60
2018-05-14T14:43:27.466Z,63.30
2018-05-14T14:45:55.064Z,63.30
2018-05-14T14:48:22.559Z,61.60
2018-05-14T14:50:50.111Z,61.50
2018-05-14T14:53:17.620Z,63.40
2018-05-14T14:55:45.904Z,61.80
2018-05-14T14:58:14.252Z,61.00
2018-05-14T15:00:41.739Z,60.90
2018-05-14T15:03:10.837Z,61.60
2018-05-14T15:05:38.351Z,61.60
2018-05-14T15:08:05.853Z,62.40
2018-05-14T15:10:33.443Z,63.50
2018-05-14T15:13:02.155Z,62.20
2018-05-14T15:15:29.675Z,61.80
2018-05-14T15:17:57.201Z,61.50
2018-05-14T15:20:25.498Z,59.40
2018-05-14T15:22:53.136Z,59.30
2018-05-14T15:25:21.688Z,59.20
2018-05-14T15:27:59.280Z,59.10
2018-05-14T15:30:26.787Z,58.70
2018-05-14T15:32:54.324Z,58.00
2018-05-14T15:35:23.102Z,57.50
2018-05-14T15:37:50.676Z,58.10
2018-05-14T15:40:19.298Z,55.00
2018-05-14T15:42:46.803Z,54.90
2018-05-14T15:45:15.067Z,55.90
2018-05-14T15:47:42.665Z,55.80
2018-05-14T15:50:10.969Z,54.70
2018-05-14T15:52:38.639Z,54.70
2018-05-14T15:55:06.104Z,54.80
2018-05-14T15:57:33.608Z,56.00
2018-05-14T16:00:02.066Z,55.40
2018-05-14T16:02:30.323Z,55.40
2018-05-14T16:04:57.917Z,55.40
2018-05-14T16:07:26.199Z,55.10
2018-05-14T16:09:54.537Z,55.90
2018-05-14T16:12:22.131Z,55.90
2018-05-14T16:14:50.437Z,55.60
2018-05-14T16:17:18.000Z,55.60
2018-05-14T16:19:45.545Z,56.20
2018-05-14T16:22:13.193Z,55.70
2018-05-14T16:24:41.645Z,56.10
2018-05-14T16:27:09.206Z,56.00
2018-05-14T16:29:37.592Z,56.50
2018-05-14T16:32:05.868Z,55.80
2018-05-14T16:34:34.210Z,55.70
2018-05-14T16:37:02.785Z,55.60
2018-05-14T16:39:30.301Z,55.40
2018-05-14T16:41:58.610Z,54.20
2018-05-14T16:44:26.160Z,54.20
2018-05-14T16:46:53.646Z,54.70
2018-05-14T16:49:21.997Z,54.70
2018-05-14T16:51:49.512Z,55.40
2018-05-14T16:54:17.791Z,55.30
2018-05-14T16:56:46.153Z,56.10
2018-05-14T16:59:13.676Z,56.00
2018-05-14T17:01:41.190Z,56.40
2018-05-14T17:04:09.535Z,56.70
2018-05-14T17:06:37.003Z,56.70
2018-05-14T17:09:04.733Z,56.60
2018-05-14T17:11:32.337Z,56.30
2018-05-14T17:14:00.623Z,55.80
2018-05-14T17:16:28.905Z,55.70
2018-05-14T17:18:57.190Z,55.20
2018-05-14T17:21:24.760Z,55.20
2018-05-14T17:23:52.246Z,55.10
2018-05-14T17:26:21.748Z,54.80
2018-05-14T17:28:49.207Z,55.20
2018-05-14T17:31:16.757Z,55.10
2018-05-14T17:33:44.259Z,54.60
2018-05-14T17:36:11.863Z,54.70
2018-05-14T17:38:40.518Z,54.70
2018-05-14T17:41:08.813Z,54.20
2018-05-14T17:43:36.418Z,54.30
2018-05-14T17:46:04.409Z,55.30
2018-05-14T17:48:32.668Z,55.40
2018-05-14T17:51:00.184Z,55.20
2018-05-14T17:53:27.960Z,55.20
2018-05-14T17:55:55.468Z,55.20
2018-05-14T17:58:23.874Z,54.70
2018-05-14T18:00:51.445Z,54.70
2018-05-14T18:03:19.404Z,55.40
2018-05-14T18:05:47.240Z,55.30
2018-05-14T18:08:15.539Z,55.60
2018-05-14T18:10:43.070Z,55.50
2018-05-14T18:13:10.564Z,55.70
2018-05-14T18:15:38.070Z,55.70
2018-05-14T18:18:05.656Z,55.70
2018-05-14T18:20:42.520Z,56.90
2018-05-14T18:23:16.552Z,56.30
2018-05-14T18:25:49.857Z,56.20
2018-05-14T18:28:17.380Z,56.60
2018-05-14T18:30:46.597Z,56.80
2018-05-14T18:33:14.178Z,56.70
2018-05-14T18:35:54.355Z,56.90
2018-05-14T18:38:21.962Z,57.30
2018-05-14T18:40:50.318Z,57.70
2018-05-14T18:43:17.842Z,57.70
2018-05-14T18:45:46.446Z,57.80
2018-05-14T18:48:13.968Z,58.30
2018-05-14T18:50:41.774Z,58.40
2018-05-14T18:53:09.605Z,58.60
2018-05-14T18:55:37.165Z,58.80
2018-05-14T18:58:04.801Z,59.00
2018-05-14T19:00:32.339Z,58.50
2018-05-14T19:03:00.645Z,58.80
2018-05-14T19:05:28.177Z,58.70
2018-05-14T19:07:56.460Z,58.70
2018-05-14T19:10:29.819Z,58.70
2018-05-14T19:12:57.392Z,58.80
2018-05-14T19:15:33.384Z,59.20
2018-05-14T19:18:02.637Z,59.20
2018-05-14T19:20:30.148Z,59.30
2018-05-14T19:23:03.488Z,59.60
2018-05-14T19:25:31.053Z,59.80
2018-05-14T19:28:05.409Z,61.10
2018-05-14T19:30:33.149Z,60.00
2018-05-14T19:33:01.207Z,60.10
2018-05-14T19:35:35.006Z,60.40
2018-05-14T19:38:02.711Z,60.30
2018-05-14T19:40:35.758Z,60.00
2018-05-14T19:43:03.956Z,59.70
2018-05-14T19:45:32.247Z,59.90
2018-05-14T19:47:59.856Z,59.80
2018-05-14T19:50:29.026Z,59.70
2018-05-14T19:53:08.150Z,59.90
2018-05-14T19:55:36.062Z,60.10
2018-05-14T19:58:05.189Z,59.60
2018-05-14T20:00:34.320Z,59.60
2018-05-14T20:03:02.246Z,59.60
2018-05-14T20:05:30.945Z,59.50
2018-05-14T20:07:58.535Z,59.50
2018-05-14T20:10:26.901Z,59.60
2018-05-14T20:12:54.617Z,59.50
2018-05-14T20:15:22.074Z,59.50
2018-05-14T20:17:51.402Z,59.70
2018-05-14T20:20:19.730Z,59.70
2018-05-14T20:22:47.308Z,59.80
2018-05-14T20:25:15.630Z,60.00
2018-05-14T20:27:43.233Z,59.90
2018-05-14T20:30:12.543Z,61.00
2018-05-14T20:32:50.742Z,61.00
2018-05-14T20:35:18.531Z,60.80
2018-05-14T20:37:46.922Z,61.30
2018-05-14T20:40:15.441Z,61.20
2018-05-14T20:42:43.016Z,61.40
2018-05-14T20:45:10.618Z,61.60
2018-05-14T20:47:38.711Z,61.50
2018-05-14T20:50:07.167Z,61.70
2018-05-14T20:52:34.825Z,61.80
2018-05-14T20:55:03.098Z,61.90
2018-05-14T20:57:32.409Z,61.50
2018-05-14T21:00:01.834Z,61.50
2018-05-14T21:02:29.475Z,61.70
2018-05-14T21:04:56.986Z,61.30
2018-05-14T21:07:24.560Z,61.50
2018-05-14T21:09:52.093Z,61.10
2018-05-14T21:12:20.521Z,61.20
2018-05-14T21:14:48.838Z,61.10
2018-05-14T21:17:17.277Z,61.10
2018-05-14T21:19:44.813Z,61.00
2018-05-14T21:22:13.061Z,60.30
2018-05-14T21:24:42.084Z,60.40
2018-05-14T21:27:10.404Z,60.50
2018-05-14T21:29:37.914Z,60.50
2018-05-14T21:32:06.252Z,60.40
2018-05-14T21:34:33.745Z,60.30
2018-05-14T21:37:01.968Z,60.40
2018-05-14T21:39:29.487Z,60.30
2018-05-14T21:41:56.994Z,60.30
2018-05-14T21:44:24.509Z,60.60
2018-05-14T21:46:52.812Z,60.60
2018-05-14T21:49:20.309Z,60.60
2018-05-14T21:51:47.816Z,60.90
2018-05-14T21:54:15.318Z,60.80
2018-05-14T21:56:42.925Z,60.90
2018-05-14T21:59:10.425Z,61.10
2018-05-14T22:01:37.932Z,61.10
2018-05-14T22:04:06.209Z,61.30
2018-05-14T22:06:34.507Z,61.50
2018-05-14T22:09:02.068Z,61.40
2018-05-14T22:11:29.553Z,61.70
2018-05-14T22:13:57.069Z,61.80
2018-05-14T22:16:25.744Z,62.10
2018-05-14T22:18:53.212Z,62.10
2018-05-14T22:21:20.734Z,62.40
2018-05-14T22:23:48.283Z,62.40
2018-05-14T22:26:16.483Z,62.90
2018-05-14T22:28:44.762Z,62.50
2018-05-14T22:31:13.005Z,62.50
2018-05-14T22:33:51.489Z,62.40
2018-05-14T22:36:18.983Z,62.10
2018-05-14T22:38:46.497Z,61.90
2018-05-14T22:41:14.009Z,61.40
2018-05-14T22:43:41.545Z,61.40
2018-05-14T22:46:09.111Z,61.50
2018-05-14T22:48:36.685Z,60.90
2018-05-14T22:51:04.196Z,60.70
2018-05-14T22:53:31.689Z,60.90
2018-05-14T22:55:59.241Z,61.00
2018-05-14T22:58:26.728Z,61.30
2018-05-14T23:00:54.973Z,61.10
2018-05-14T23:03:22.483Z,61.00
2018-05-14T23:06:00.074Z,61.30
2018-05-14T23:08:27.599Z,60.70
2018-05-14T23:10:55.115Z,60.10
2018-05-14T23:13:22.640Z,59.90
2018-05-14T23:15:51.015Z,59.80
2018-05-14T23:18:19.265Z,60.00
2018-05-14T23:20:46.765Z,59.90
2018-05-14T23:23:14.291Z,59.70
2018-05-14T23:25:41.870Z,59.20
2018-05-14T23:28:10.158Z,59.20
2018-05-14T23:30:37.702Z,59.10
2018-05-14T23:33:07.125Z,59.20
2018-05-14T23:35:35.458Z,58.70
2018-05-14T23:38:02.997Z,58.70
2018-05-14T23:40:30.833Z,58.80
2018-05-14T23:42:58.394Z,58.90
2018-05-14T23:45:25.960Z,58.90
2018-05-14T23:47:53.435Z,59.30
2018-05-14T23:50:20.964Z,59.70
2018-05-14T23:52:48.523Z,59.90
2018-05-14T23:55:16.006Z,59.90
2018-05-14T23:57:43.486Z,59.90
